| time (UTC) | temp C | wind direction | speed KPH | gust KPH | rain 1hr cm | rain 24hr cm | rain mn cm | humidity % | barometer mb |
| 20260507183021 | 18 | 139 | 0.0 | 4.8 | 0.00 | 0.79 | 0.79 | 45 | 1014.7 |
| 20260507181514 | 18 | 143 | 3.2 | 8.0 | 0.00 | 0.79 | 0.79 | 43 | 1014.5 |
| 20260507180014 | 18 | 157 | 3.2 | 11.3 | 0.00 | 0.79 | 0.79 | 43 | 1014.4 |
| 20260507174514 | 18 | 137 | 1.6 | 6.4 | 0.00 | 0.79 | 0.79 | 43 | 1014.4 |
| 20260507173015 | 18 | 100 | 0.0 | 8.0 | 0.00 | 0.79 | 0.79 | 42 | 1014.4 |
| 20260507171511 | 19 | 124 | 1.6 | 9.7 | 0.00 | 0.79 | 0.79 | 41 | 1014.3 |
| 20260507170013 | 20 | 2 | 1.6 | 9.7 | 0.00 | 0.79 | 0.79 | 39 | 1014.3 |
| 20260507164517 | 20 | 131 | 1.6 | 8.0 | 0.00 | 0.79 | 0.79 | 38 | 1014.3 |
| 20260507163010 | 20 | 129 | 4.8 | 12.9 | 0.00 | 0.79 | 0.79 | 37 | 1014.4 |
| 20260507161510 | 21 | 123 | 4.8 | 12.9 | 0.00 | 0.79 | 0.79 | 38 | 1014.4 |
| 20260507160009 | 21 | 167 | 4.8 | 14.5 | 0.00 | 0.79 | 0.79 | 38 | 1014.4 |
| 20260507154508 | 21 | 147 | 3.2 | 17.7 | 0.00 | 0.79 | 0.79 | 37 | 1014.3 |
| 20260507153007 | 21 | 111 | 8.0 | 20.9 | 0.00 | 0.79 | 0.79 | 37 | 1014.2 |
| 20260507151506 | 21 | 141 | 4.8 | 17.7 | 0.00 | 0.79 | 0.79 | 38 | 1014.2 |
| 20260507150010 | 22 | 143 | 8.0 | 19.3 | 0.00 | 0.79 | 0.79 | 36 | 1014.3 |
| 20260507144503 | 22 | 152 | 6.4 | 16.1 | 0.00 | 0.79 | 0.79 | 36 | 1014.4 |
| 20260507143002 | 22 | 215 | 6.4 | 14.5 | 0.00 | 0.79 | 0.79 | 40 | 1014.4 |
| 20260507141605 | 22 | 131 | 4.8 | 14.5 | 0.00 | 0.79 | 0.79 | 44 | 1014.5 |
| 20260507140125 | 21 | 105 | 6.4 | 19.3 | 0.00 | 0.79 | 0.79 | 45 | 1014.5 |
| 20260507134559 | 22 | 163 | 9.7 | 17.7 | 0.00 | 0.79 | 0.79 | 45 | 1014.6 |
| 20260507133059 | 22 | 188 | 8.0 | 17.7 | 0.00 | 0.79 | 0.79 | 45 | 1014.6 |
| 20260507131614 | 22 | 153 | 6.4 | 14.5 | 0.00 | 0.79 | 0.79 | 45 | 1014.7 |
| 20260507130110 | 22 | 118 | 8.0 | 16.1 | 0.00 | 0.79 | 0.79 | 49 | 1015.0 |
| 20260507124606 | 22 | 207 | 6.4 | 16.1 | 0.00 | 0.79 | 0.79 | 53 | 1015.0 |
| 20260507123100 | 22 | 187 | 8.0 | 19.3 | 0.00 | 0.79 | 0.79 | 49 | 1014.9 |
| 20260507121551 | 22 | 101 | 4.8 | 17.7 | 0.00 | 0.79 | 0.79 | 54 | 1014.9 |
| 20260507120050 | 22 | 262 | 4.8 | 14.5 | 0.00 | 0.79 | 0.79 | 54 | 1015.0 |
| 20260507114550 | 22 | 116 | 9.7 | 27.4 | 0.00 | 0.79 | 0.79 | 55 | 1014.8 |
| 20260507113048 | 22 | 17 | 3.2 | 22.5 | 0.00 | 0.79 | 0.79 | 59 | 1014.9 |
| 20260507111547 | 22 | 232 | 6.4 | 29.0 | 0.00 | 0.79 | 0.79 | 59 | 1014.8 |
| 20260507110042 | 21 | 82 | 8.0 | 29.0 | 0.00 | 0.79 | 0.79 | 64 | 1015.2 |
| 20260507104541 | 21 | 139 | 11.3 | 30.6 | 0.00 | 0.79 | 0.79 | 65 | 1014.9 |
| 20260507103039 | 21 | 152 | 11.3 | 30.6 | 0.00 | 0.79 | 0.79 | 65 | 1015.0 |
| 20260507101545 | 21 | 65 | 8.0 | 35.4 | 0.00 | 0.79 | 0.79 | 67 | 1015.2 |
| 20260507100037 | 20 | 240 | 9.7 | 32.2 | 0.00 | 0.79 | 0.79 | 67 | 1015.4 |
| 20260507094531 | 20 | 153 | 14.5 | 29.0 | 0.00 | 0.79 | 0.79 | 70 | 1015.3 |
| 20260507093037 | 19 | 206 | 6.4 | 27.4 | 0.00 | 0.79 | 0.79 | 73 | 1015.2 |
| 20260507091527 | 19 | 146 | 9.7 | 30.6 | 0.00 | 0.79 | 0.79 | 73 | 1015.0 |
| 20260507090030 | 18 | 193 | 9.7 | 22.5 | 0.00 | 0.79 | 0.79 | 76 | 1014.8 |
| 20260507084522 | 18 | 139 | 9.7 | 30.6 | 0.00 | 0.79 | 0.79 | 80 | 1014.5 |
| 20260507083034 | 18 | 133 | 12.9 | 27.4 | 0.00 | 0.79 | 0.79 | 81 | 1014.6 |
| 20260507081516 | 18 | 153 | 6.4 | 19.3 | 0.00 | 0.79 | 0.79 | 82 | 1014.8 |
| 20260507080013 | 17 | 163 | 3.2 | 16.1 | 0.00 | 0.79 | 0.79 | 82 | 1014.6 |
| 20260507074525 | 17 | 115 | 1.6 | 11.3 | 0.00 | 0.79 | 0.79 | 82 | 1014.9 |
| 20260507073012 | 16 | 101 | 3.2 | 16.1 | 0.00 | 0.79 | 0.79 | 82 | 1015.3 |
| 20260507071510 | 16 | 143 | 4.8 | 16.1 | 0.00 | 0.79 | 0.79 | 82 | 1015.4 |
| 20260507070012 | 16 | 131 | 4.8 | 20.9 | 0.00 | 0.79 | 0.79 | 82 | 1015.1 |
| 20260507064510 | 15 | 127 | 4.8 | 16.1 | 0.05 | 0.79 | 0.79 | 81 | 1015.3 |
| 20260507063007 | 15 | 217 | 6.4 | 24.1 | 0.05 | 0.79 | 0.79 | 79 | 1015.3 |
| 20260507061507 | 15 | 131 | 3.2 | 16.1 | 0.10 | 0.79 | 0.79 | 78 | 1015.9 |
| 20260507060005 | 15 | 101 | 3.2 | 11.3 | 0.13 | 0.79 | 0.79 | 78 | 1016.5 |
| 20260507054503 | 15 | 172 | 4.8 | 11.3 | 0.10 | 0.76 | 0.76 | 78 | 1016.7 |
| 20260507053004 | 15 | 144 | 0.0 | 6.4 | 0.10 | 0.71 | 0.71 | 78 | 1016.7 |
| 20260507051502 | 15 | 131 | 0.0 | 8.0 | 0.08 | 0.71 | 0.71 | 78 | 1016.7 |
| 20260507050003 | 15 | 146 | 0.0 | 4.8 | 0.08 | 0.69 | 0.69 | 78 | 1016.8 |
| 20260507044621 | 15 | 8 | 0.0 | 1.6 | 0.15 | 0.66 | 0.66 | 78 | 1016.6 |
| 20260507043059 | 15 | 8 | 0.0 | 3.2 | 0.18 | 0.64 | 0.64 | 78 | 1016.1 |
| 20260507041602 | 15 | 129 | 0.0 | 1.6 | 0.15 | 0.61 | 0.61 | 78 | 1016.0 |
| 20260507040105 | 15 | 146 | 0.0 | 6.4 | 0.15 | 0.61 | 0.61 | 78 | 1016.3 |
| 20260507034559 | 15 | 147 | 3.2 | 14.5 | 0.08 | 0.51 | 0.51 | 78 | 1016.3 |
| 20260507033053 | 15 | 224 | 4.8 | 12.9 | 0.05 | 0.46 | 0.46 | 78 | 1016.4 |
| 20260507031555 | 15 | 231 | 1.6 | 6.4 | 0.13 | 0.46 | 0.46 | 78 | 1016.2 |
| 20260507030053 | 15 | 224 | 1.6 | 4.8 | 0.15 | 0.43 | 0.43 | 78 | 1015.9 |
| 20260507024547 | 15 | 226 | 0.0 | 1.6 | 0.20 | 0.43 | 0.43 | 78 | 1015.4 |
| 20260507023048 | 15 | 226 | 0.0 | 3.2 | 0.18 | 0.41 | 0.41 | 78 | 1015.1 |
| 20260507021546 | 15 | 115 | 0.0 | 6.4 | 0.15 | 0.33 | 0.33 | 78 | 1014.7 |
| 20260507020051 | 15 | 127 | 1.6 | 9.7 | 0.15 | 0.30 | 0.30 | 78 | 1014.8 |
| 20260507014547 | 15 | 136 | 3.2 | 9.7 | 0.10 | 0.23 | 0.23 | 78 | 1015.3 |
| 20260507013041 | 15 | 143 | 1.6 | 8.0 | 0.15 | 0.23 | 0.23 | 78 | 1015.5 |
| 20260507011543 | 16 | 143 | 0.0 | 3.2 | 0.15 | 0.18 | 0.18 | 79 | 1015.2 |
| 20260507010038 | 16 | 143 | 0.0 | 1.6 | 0.15 | 0.15 | 0.15 | 79 | 1015.2 |
| 20260507004537 | 16 | 143 | 0.0 | 6.4 | 0.15 | 0.15 | 0.15 | 79 | 1015.3 |
| 20260507003034 | 16 | 232 | 0.0 | 3.2 | 0.08 | 0.08 | 0.08 | 80 | 1015.1 |
| 20260507001546 | 16 | 234 | 0.0 | 3.2 | 0.05 | 0.05 | 0.05 | 81 | 1015.1 |
| 20260507000030 | 16 | 234 | 0.0 | 3.2 | 0.03 | 0.03 | 0.03 | 81 | 1014.8 |
| 20260506234540 | 16 | 233 | 0.0 | 0.0 | 0.00 | 0.00 | 0.00 | 82 | 1014.6 |
| 20260506233028 | 16 | 221 | 0.0 | 8.0 | 0.00 | 0.00 | 0.00 | 82 | 1014.8 |
| 20260506231528 | 17 | 214 | 1.6 | 6.4 | 0.00 | 0.00 | 0.00 | 82 | 1014.6 |
| 20260506230025 | 17 | 156 | 0.0 | 4.8 | 0.00 | 0.00 | 0.00 | 82 | 1014.7 |
| 20260506224528 | 17 | 234 | 0.0 | 3.2 | 0.00 | 0.00 | 0.00 | 82 | 1014.7 |
| 20260506223022 | 17 | 180 | 3.2 | 9.7 | 0.00 | 0.00 | 0.00 | 81 | 1014.9 |
| 20260506221522 | 17 | 134 | 3.2 | 9.7 | 0.00 | 0.00 | 0.00 | 81 | 1014.9 |
| 20260506220018 | 17 | 131 | 4.8 | 14.5 | 0.00 | 0.00 | 0.00 | 81 | 1015.0 |
| 20260506214517 | 17 | 122 | 4.8 | 16.1 | 0.00 | 0.00 | 0.00 | 81 | 1015.0 |
| 20260506213021 | 17 | 221 | 6.4 | 19.3 | 0.00 | 0.00 | 0.00 | 81 | 1015.2 |
| 20260506211518 | 17 | 233 | 6.4 | 17.7 | 0.00 | 0.00 | 0.00 | 81 | 1015.1 |
| 20260506210018 | 17 | 91 | 6.4 | 14.5 | 0.00 | 0.00 | 0.00 | 81 | 1014.9 |
| 20260506204514 | 17 | 144 | 6.4 | 11.3 | 0.00 | 0.00 | 0.00 | 81 | 1014.6 |
| 20260506203014 | 17 | 141 | 4.8 | 12.9 | 0.00 | 0.00 | 0.00 | 81 | 1014.6 |
| 20260506201520 | 17 | 174 | 4.8 | 12.9 | 0.00 | 0.00 | 0.00 | 80 | 1014.6 |
| 20260506200017 | 17 | 210 | 3.2 | 11.3 | 0.00 | 0.00 | 0.00 | 80 | 1014.4 |
| 20260506194512 | 17 | 169 | 3.2 | 12.9 | 0.00 | 0.00 | 0.00 | 79 | 1014.3 |
| 20260506193012 | 17 | 218 | 6.4 | 14.5 | 0.00 | 0.00 | 0.00 | 79 | 1014.2 |
| 20260506191515 | 17 | 143 | 4.8 | 19.3 | 0.00 | 0.00 | 0.00 | 79 | 1014.2 |
| 20260506190010 | 17 | 233 | 6.4 | 19.3 | 0.00 | 0.00 | 0.00 | 78 | 1013.9 |
| 20260506184510 | 17 | 116 | 6.4 | 24.1 | 0.00 | 0.00 | 0.00 | 78 | 1013.9 |